sensor_id;sensor_type;location;lat;lon;timestamp;temperature;humidity
33067;DHT22;19428;49.024;8.366;2022-12-18T00:00:04;-7.10;99.90
33067;DHT22;19428;49.024;8.366;2022-12-18T00:02:30;-7.40;99.90
33067;DHT22;19428;49.024;8.366;2022-12-18T00:08:26;-7.30;99.90
33067;DHT22;19428;49.024;8.366;2022-12-18T00:10:51;-7.30;99.90
33067;DHT22;19428;49.024;8.366;2022-12-18T00:13:20;-7.40;99.90
33067;DHT22;19428;49.024;8.366;2022-12-18T00:15:46;-7.40;99.90
33067;DHT22;19428;49.024;8.366;2022-12-18T00:18:17;-7.30;99.90
33067;DHT22;19428;49.024;8.366;2022-12-18T00:20:57;-7.40;99.90
33067;DHT22;19428;49.024;8.366;2022-12-18T00:23:26;-7.40;99.90
33067;DHT22;19428;49.024;8.366;2022-12-18T00:26:07;-7.50;99.90
33067;DHT22;19428;49.024;8.366;2022-12-18T00:28:46;-7.40;99.90
33067;DHT22;19428;49.024;8.366;2022-12-18T00:31:23;-7.40;99.90
33067;DHT22;19428;49.024;8.366;2022-12-18T00:33:55;-7.40;99.90
33067;DHT22;19428;49.024;8.366;2022-12-18T00:39:40;-7.70;99.90
33067;DHT22;19428;49.024;8.366;2022-12-18T00:42:05;-7.40;99.90
33067;DHT22;19428;49.024;8.366;2022-12-18T00:44:49;-7.30;99.90
33067;DHT22;19428;49.024;8.366;2022-12-18T00:47:15;-7.40;99.90
33067;DHT22;19428;49.024;8.366;2022-12-18T00:49:41;-7.40;99.90
33067;DHT22;19428;49.024;8.366;2022-12-18T00:54:50;-7.20;99.90
33067;DHT22;19428;49.024;8.366;2022-12-18T00:57:20;-7.10;99.90
33067;DHT22;19428;49.024;8.366;2022-12-18T00:59:49;-7.60;99.90
33067;DHT22;19428;49.024;8.366;2022-12-18T01:02:15;-7.50;99.90
33067;DHT22;19428;49.024;8.366;2022-12-18T01:04:54;-7.50;99.90
33067;DHT22;19428;49.024;8.366;2022-12-18T01:07:20;-7.30;99.90
33067;DHT22;19428;49.024;8.366;2022-12-18T01:09:48;-7.80;99.90
33067;DHT22;19428;49.024;8.366;2022-12-18T01:12:26;-7.90;99.90
33067;DHT22;19428;49.024;8.366;2022-12-18T01:14:54;-7.60;99.90
33067;DHT22;19428;49.024;8.366;2022-12-18T01:17:20;-7.40;99.90
33067;DHT22;19428;49.024;8.366;2022-12-18T01:23:14;-7.30;99.90
33067;DHT22;19428;49.024;8.366;2022-12-18T01:28:28;-7.50;99.90
33067;DHT22;19428;49.024;8.366;2022-12-18T01:30:54;-7.40;99.90
33067;DHT22;19428;49.024;8.366;2022-12-18T01:33:19;-7.60;99.90
33067;DHT22;19428;49.024;8.366;2022-12-18T01:35:45;-7.50;99.90
33067;DHT22;19428;49.024;8.366;2022-12-18T01:38:11;-7.30;99.90
33067;DHT22;19428;49.024;8.366;2022-12-18T01:40:36;-7.10;99.90
33067;DHT22;19428;49.024;8.366;2022-12-18T01:48:17;-7.40;99.90
33067;DHT22;19428;49.024;8.366;2022-12-18T01:53:11;-7.50;99.90
33067;DHT22;19428;49.024;8.366;2022-12-18T01:56:02;-7.40;99.90
33067;DHT22;19428;49.024;8.366;2022-12-18T02:01:23;-7.50;99.90
33067;DHT22;19428;49.024;8.366;2022-12-18T02:03:49;-7.90;99.90
33067;DHT22;19428;49.024;8.366;2022-12-18T02:06:24;-7.90;99.90
33067;DHT22;19428;49.024;8.366;2022-12-18T02:09:18;-7.60;99.90
33067;DHT22;19428;49.024;8.366;2022-12-18T02:12:10;-7.40;99.90
33067;DHT22;19428;49.024;8.366;2022-12-18T02:17:18;-7.40;99.90
33067;DHT22;19428;49.024;8.366;2022-12-18T02:27:40;-7.50;99.90
33067;DHT22;19428;49.024;8.366;2022-12-18T02:30:07;-7.30;99.90
33067;DHT22;19428;49.024;8.366;2022-12-18T02:32:42;-7.30;99.90
33067;DHT22;19428;49.024;8.366;2022-12-18T02:35:15;-7.40;99.90
33067;DHT22;19428;49.024;8.366;2022-12-18T02:41:17;-7.50;99.90
33067;DHT22;19428;49.024;8.366;2022-12-18T02:44:08;-7.40;99.90
33067;DHT22;19428;49.024;8.366;2022-12-18T02:46:55;-7.40;99.90
33067;DHT22;19428;49.024;8.366;2022-12-18T02:53:15;-7.50;99.90
33067;DHT22;19428;49.024;8.366;2022-12-18T02:58:40;-8.00;99.90
33067;DHT22;19428;49.024;8.366;2022-12-18T03:03:57;-7.90;99.90
33067;DHT22;19428;49.024;8.366;2022-12-18T03:06:32;-7.50;99.90
33067;DHT22;19428;49.024;8.366;2022-12-18T03:09:04;-7.60;99.90
33067;DHT22;19428;49.024;8.366;2022-12-18T03:11:37;-7.60;99.90
33067;DHT22;19428;49.024;8.366;2022-12-18T03:17:52;-7.40;99.90
33067;DHT22;19428;49.024;8.366;2022-12-18T03:23:46;-7.70;99.90
33067;DHT22;19428;49.024;8.366;2022-12-18T03:26:16;-7.90;99.90
33067;DHT22;19428;49.024;8.366;2022-12-18T03:29:05;-7.90;99.90
33067;DHT22;19428;49.024;8.366;2022-12-18T03:32:04;-7.90;99.90
33067;DHT22;19428;49.024;8.366;2022-12-18T03:35:08;-7.70;99.90
33067;DHT22;19428;49.024;8.366;2022-12-18T03:53:25;-8.10;99.90
33067;DHT22;19428;49.024;8.366;2022-12-18T03:55:55;-8.20;99.90
33067;DHT22;19428;49.024;8.366;2022-12-18T03:58:45;-8.60;99.90
33067;DHT22;19428;49.024;8.366;2022-12-18T04:01:13;-8.40;99.90
33067;DHT22;19428;49.024;8.366;2022-12-18T04:10:06;-8.40;99.90
33067;DHT22;19428;49.024;8.366;2022-12-18T04:12:33;-8.10;99.90
33067;DHT22;19428;49.024;8.366;2022-12-18T04:14:58;-8.00;99.90
33067;DHT22;19428;49.024;8.366;2022-12-18T04:17:24;-8.00;99.90
33067;DHT22;19428;49.024;8.366;2022-12-18T04:19:50;-7.80;99.90
33067;DHT22;19428;49.024;8.366;2022-12-18T04:25:22;-7.80;99.90
33067;DHT22;19428;49.024;8.366;2022-12-18T04:27:47;-7.80;99.90
33067;DHT22;19428;49.024;8.366;2022-12-18T04:35:18;-8.00;99.90
33067;DHT22;19428;49.024;8.366;2022-12-18T04:37:44;-8.00;99.90
33067;DHT22;19428;49.024;8.366;2022-12-18T04:40:10;-7.80;99.90
33067;DHT22;19428;49.024;8.366;2022-12-18T04:42:36;-7.80;99.90
33067;DHT22;19428;49.024;8.366;2022-12-18T04:51:33;-7.70;99.90
33067;DHT22;19428;49.024;8.366;2022-12-18T04:56:28;-7.90;99.90
33067;DHT22;19428;49.024;8.366;2022-12-18T05:02:16;-7.70;99.90
33067;DHT22;19428;49.024;8.366;2022-12-18T05:04:43;-7.90;99.90
33067;DHT22;19428;49.024;8.366;2022-12-18T05:07:22;-8.00;99.90
33067;DHT22;19428;49.024;8.366;2022-12-18T05:13:13;-7.90;99.90
33067;DHT22;19428;49.024;8.366;2022-12-18T05:15:39;-7.90;99.90
33067;DHT22;19428;49.024;8.366;2022-12-18T05:21:03;-8.00;99.90
33067;DHT22;19428;49.024;8.366;2022-12-18T05:23:34;-8.00;99.90
33067;DHT22;19428;49.024;8.366;2022-12-18T05:34:31;-7.80;99.90
33067;DHT22;19428;49.024;8.366;2022-12-18T05:36:58;-8.10;99.90
33067;DHT22;19428;49.024;8.366;2022-12-18T05:42:05;-8.10;99.90
33067;DHT22;19428;49.024;8.366;2022-12-18T05:44:30;-8.10;99.90
33067;DHT22;19428;49.024;8.366;2022-12-18T05:46:56;-8.00;99.90
33067;DHT22;19428;49.024;8.366;2022-12-18T05:49:21;-7.90;99.90
33067;DHT22;19428;49.024;8.366;2022-12-18T05:51:47;-7.80;99.90
33067;DHT22;19428;49.024;8.366;2022-12-18T05:54:12;-7.80;99.90
33067;DHT22;19428;49.024;8.366;2022-12-18T05:59:55;-7.30;99.90
33067;DHT22;19428;49.024;8.366;2022-12-18T06:02:23;-7.10;99.90
33067;DHT22;19428;49.024;8.366;2022-12-18T06:05:23;-7.00;99.90
33067;DHT22;19428;49.024;8.366;2022-12-18T06:07:48;-6.90;99.90
33067;DHT22;19428;49.024;8.366;2022-12-18T06:10:14;-6.90;99.90
33067;DHT22;19428;49.024;8.366;2022-12-18T06:12:40;-6.90;99.90
33067;DHT22;19428;49.024;8.366;2022-12-18T06:15:05;-6.90;99.90
33067;DHT22;19428;49.024;8.366;2022-12-18T06:17:32;-6.90;99.90
33067;DHT22;19428;49.024;8.366;2022-12-18T06:23:22;-6.80;99.90
33067;DHT22;19428;49.024;8.366;2022-12-18T06:25:48;-6.70;99.90
33067;DHT22;19428;49.024;8.366;2022-12-18T06:28:14;-6.70;99.90
33067;DHT22;19428;49.024;8.366;2022-12-18T06:30:39;-6.60;99.90
33067;DHT22;19428;49.024;8.366;2022-12-18T06:33:05;-6.60;99.90
33067;DHT22;19428;49.024;8.366;2022-12-18T06:38:45;-6.50;99.90
33067;DHT22;19428;49.024;8.366;2022-12-18T06:41:13;-6.50;99.90
33067;DHT22;19428;49.024;8.366;2022-12-18T06:43:39;-6.40;99.90
33067;DHT22;19428;49.024;8.366;2022-12-18T06:46:05;-6.50;99.90
33067;DHT22;19428;49.024;8.366;2022-12-18T06:48:31;-6.50;99.90
33067;DHT22;19428;49.024;8.366;2022-12-18T06:54:13;-6.30;99.90
33067;DHT22;19428;49.024;8.366;2022-12-18T06:56:39;-6.30;99.90
33067;DHT22;19428;49.024;8.366;2022-12-18T06:59:05;-6.30;99.90
33067;DHT22;19428;49.024;8.366;2022-12-18T07:01:30;-6.30;99.90
33067;DHT22;19428;49.024;8.366;2022-12-18T07:06:29;-6.30;99.90
33067;DHT22;19428;49.024;8.366;2022-12-18T07:08:55;-6.30;99.90
33067;DHT22;19428;49.024;8.366;2022-12-18T07:14:45;-6.20;99.90
33067;DHT22;19428;49.024;8.366;2022-12-18T07:17:14;-6.10;99.90
33067;DHT22;19428;49.024;8.366;2022-12-18T07:19:39;-6.20;99.90
33067;DHT22;19428;49.024;8.366;2022-12-18T07:22:06;-6.20;99.90
33067;DHT22;19428;49.024;8.366;2022-12-18T07:24:33;-6.10;99.90
33067;DHT22;19428;49.024;8.366;2022-12-18T07:26:59;-6.10;99.90
33067;DHT22;19428;49.024;8.366;2022-12-18T07:29:24;-6.00;99.90
33067;DHT22;19428;49.024;8.366;2022-12-18T07:31:50;-6.00;99.90
33067;DHT22;19428;49.024;8.366;2022-12-18T07:34:16;-6.20;99.90
33067;DHT22;19428;49.024;8.366;2022-12-18T07:36:42;-6.20;99.90
33067;DHT22;19428;49.024;8.366;2022-12-18T07:39:08;-6.10;99.90
33067;DHT22;19428;49.024;8.366;2022-12-18T07:41:41;-6.10;99.90
33067;DHT22;19428;49.024;8.366;2022-12-18T07:44:32;-6.00;99.90
33067;DHT22;19428;49.024;8.366;2022-12-18T07:47:13;-6.00;99.90
33067;DHT22;19428;49.024;8.366;2022-12-18T07:49:41;-5.80;99.90
33067;DHT22;19428;49.024;8.366;2022-12-18T07:52:17;-5.80;99.90
33067;DHT22;19428;49.024;8.366;2022-12-18T07:54:43;-5.90;99.90
33067;DHT22;19428;49.024;8.366;2022-12-18T07:57:16;-5.90;99.90
33067;DHT22;19428;49.024;8.366;2022-12-18T08:03:19;-5.80;99.90
33067;DHT22;19428;49.024;8.366;2022-12-18T08:05:50;-5.80;99.90
33067;DHT22;19428;49.024;8.366;2022-12-18T08:08:19;-5.80;99.90
33067;DHT22;19428;49.024;8.366;2022-12-18T08:10:48;-5.90;99.90
33067;DHT22;19428;49.024;8.366;2022-12-18T08:13:17;-5.90;99.90
33067;DHT22;19428;49.024;8.366;2022-12-18T08:15:42;-5.80;99.90
33067;DHT22;19428;49.024;8.366;2022-12-18T08:18:08;-5.60;99.90
33067;DHT22;19428;49.024;8.366;2022-12-18T08:20:33;-5.80;99.90
33067;DHT22;19428;49.024;8.366;2022-12-18T08:22:59;-5.80;99.90
33067;DHT22;19428;49.024;8.366;2022-12-18T08:25:25;-5.70;99.90
33067;DHT22;19428;49.024;8.366;2022-12-18T08:27:50;-5.70;99.90
33067;DHT22;19428;49.024;8.366;2022-12-18T08:30:16;-5.60;99.90
33067;DHT22;19428;49.024;8.366;2022-12-18T08:32:42;-5.50;99.90
33067;DHT22;19428;49.024;8.366;2022-12-18T08:35:08;-5.60;99.90
33067;DHT22;19428;49.024;8.366;2022-12-18T08:37:33;-5.50;99.90
33067;DHT22;19428;49.024;8.366;2022-12-18T08:39:59;-5.40;99.90
33067;DHT22;19428;49.024;8.366;2022-12-18T08:42:25;-5.40;99.90
33067;DHT22;19428;49.024;8.366;2022-12-18T08:45:26;-5.30;99.90
33067;DHT22;19428;49.024;8.366;2022-12-18T08:47:52;-5.60;99.90
33067;DHT22;19428;49.024;8.366;2022-12-18T08:50:17;-5.70;99.90
33067;DHT22;19428;49.024;8.366;2022-12-18T08:52:43;-5.60;99.90
33067;DHT22;19428;49.024;8.366;2022-12-18T08:55:09;-5.40;99.90
33067;DHT22;19428;49.024;8.366;2022-12-18T08:57:35;-5.40;99.90
33067;DHT22;19428;49.024;8.366;2022-12-18T09:00:01;-5.50;99.90
33067;DHT22;19428;49.024;8.366;2022-12-18T09:02:29;-5.40;99.90
33067;DHT22;19428;49.024;8.366;2022-12-18T09:04:54;-5.30;99.90
33067;DHT22;19428;49.024;8.366;2022-12-18T09:07:20;-5.50;99.90
33067;DHT22;19428;49.024;8.366;2022-12-18T09:09:45;-5.60;99.90
33067;DHT22;19428;49.024;8.366;2022-12-18T09:12:11;-5.50;99.90
33067;DHT22;19428;49.024;8.366;2022-12-18T09:14:37;-5.50;99.90
33067;DHT22;19428;49.024;8.366;2022-12-18T09:17:02;-5.50;99.90
33067;DHT22;19428;49.024;8.366;2022-12-18T09:19:28;-5.30;99.90
33067;DHT22;19428;49.024;8.366;2022-12-18T09:21:54;-5.10;99.90
33067;DHT22;19428;49.024;8.366;2022-12-18T09:24:19;-5.10;99.90
33067;DHT22;19428;49.024;8.366;2022-12-18T09:26:45;-5.20;99.90
33067;DHT22;19428;49.024;8.366;2022-12-18T09:29:10;-5.20;99.90
33067;DHT22;19428;49.024;8.366;2022-12-18T09:31:36;-5.20;99.90
33067;DHT22;19428;49.024;8.366;2022-12-18T09:34:03;-5.20;99.90
33067;DHT22;19428;49.024;8.366;2022-12-18T09:36:31;-5.10;99.90
33067;DHT22;19428;49.024;8.366;2022-12-18T09:38:57;-5.10;99.90
33067;DHT22;19428;49.024;8.366;2022-12-18T09:41:50;-4.90;99.90
33067;DHT22;19428;49.024;8.366;2022-12-18T09:44:36;-4.90;99.90
33067;DHT22;19428;49.024;8.366;2022-12-18T10:11:50;-4.80;99.90
33067;DHT22;19428;49.024;8.366;2022-12-18T10:20:41;-4.70;99.90
33067;DHT22;19428;49.024;8.366;2022-12-18T10:28:26;-4.60;99.90
33067;DHT22;19428;49.024;8.366;2022-12-18T10:30:52;-4.40;99.90
33067;DHT22;19428;49.024;8.366;2022-12-18T10:33:20;-4.40;99.90
33067;DHT22;19428;49.024;8.366;2022-12-18T10:35:55;-4.30;99.90
33067;DHT22;19428;49.024;8.366;2022-12-18T10:41:07;-4.20;99.90
33067;DHT22;19428;49.024;8.366;2022-12-18T10:44:17;-4.40;99.90
33067;DHT22;19428;49.024;8.366;2022-12-18T10:47:04;-4.40;99.90
33067;DHT22;19428;49.024;8.366;2022-12-18T10:49:31;-4.60;99.90
33067;DHT22;19428;49.024;8.366;2022-12-18T10:58:35;-4.50;99.90
33067;DHT22;19428;49.024;8.366;2022-12-18T11:01:28;-4.20;99.90
33067;DHT22;19428;49.024;8.366;2022-12-18T11:07:54;-4.20;99.90
33067;DHT22;19428;49.024;8.366;2022-12-18T11:10:21;-4.20;99.90
33067;DHT22;19428;49.024;8.366;2022-12-18T11:16:18;-4.20;99.90
33067;DHT22;19428;49.024;8.366;2022-12-18T11:18:53;-3.90;99.90
33067;DHT22;19428;49.024;8.366;2022-12-18T11:21:50;-3.70;99.90
33067;DHT22;19428;49.024;8.366;2022-12-18T11:27:38;-4.00;99.90
33067;DHT22;19428;49.024;8.366;2022-12-18T11:35:56;-4.10;99.90
33067;DHT22;19428;49.024;8.366;2022-12-18T11:38:35;-4.40;99.90
33067;DHT22;19428;49.024;8.366;2022-12-18T11:41:18;-4.30;99.90
33067;DHT22;19428;49.024;8.366;2022-12-18T11:43:55;-4.10;99.90
33067;DHT22;19428;49.024;8.366;2022-12-18T11:46:30;-4.20;99.90
33067;DHT22;19428;49.024;8.366;2022-12-18T11:49:03;-4.00;99.90
33067;DHT22;19428;49.024;8.366;2022-12-18T11:51:53;-4.20;99.90
33067;DHT22;19428;49.024;8.366;2022-12-18T11:54:21;-4.30;99.90
33067;DHT22;19428;49.024;8.366;2022-12-18T12:04:55;-4.20;99.90
33067;DHT22;19428;49.024;8.366;2022-12-18T12:18:47;-4.10;99.90
33067;DHT22;19428;49.024;8.366;2022-12-18T12:21:24;-4.10;99.90
33067;DHT22;19428;49.024;8.366;2022-12-18T12:26:45;-4.10;99.90
33067;DHT22;19428;49.024;8.366;2022-12-18T12:32:58;-4.00;99.90
33067;DHT22;19428;49.024;8.366;2022-12-18T12:38:28;-3.80;99.90
33067;DHT22;19428;49.024;8.366;2022-12-18T12:41:02;-3.70;99.90
33067;DHT22;19428;49.024;8.366;2022-12-18T12:43:32;-3.70;99.90
33067;DHT22;19428;49.024;8.366;2022-12-18T12:46:05;-3.60;99.90
33067;DHT22;19428;49.024;8.366;2022-12-18T12:48:39;-3.70;99.90
33067;DHT22;19428;49.024;8.366;2022-12-18T12:53:40;-3.60;99.90
33067;DHT22;19428;49.024;8.366;2022-12-18T12:56:08;-3.60;99.90
33067;DHT22;19428;49.024;8.366;2022-12-18T13:04:10;-3.40;99.90
33067;DHT22;19428;49.024;8.366;2022-12-18T13:06:53;-3.50;99.90
33067;DHT22;19428;49.024;8.366;2022-12-18T13:09:21;-3.50;99.90
33067;DHT22;19428;49.024;8.366;2022-12-18T13:11:47;-3.40;99.90
33067;DHT22;19428;49.024;8.366;2022-12-18T13:14:39;-3.30;99.90
33067;DHT22;19428;49.024;8.366;2022-12-18T13:19:51;-3.10;99.90
33067;DHT22;19428;49.024;8.366;2022-12-18T13:22:22;-3.10;99.90
33067;DHT22;19428;49.024;8.366;2022-12-18T13:24:52;-3.20;99.90
33067;DHT22;19428;49.024;8.366;2022-12-18T13:36:27;-3.20;99.90
33067;DHT22;19428;49.024;8.366;2022-12-18T13:39:32;-3.30;99.90
33067;DHT22;19428;49.024;8.366;2022-12-18T13:44:42;-3.20;99.90
33067;DHT22;19428;49.024;8.366;2022-12-18T13:47:34;-3.20;99.90
33067;DHT22;19428;49.024;8.366;2022-12-18T13:50:32;-3.30;99.90
33067;DHT22;19428;49.024;8.366;2022-12-18T13:52:58;-3.30;99.90
33067;DHT22;19428;49.024;8.366;2022-12-18T13:55:24;-3.30;99.90
33067;DHT22;19428;49.024;8.366;2022-12-18T13:58:03;-3.20;99.90
33067;DHT22;19428;49.024;8.366;2022-12-18T14:00:29;-3.30;99.90
33067;DHT22;19428;49.024;8.366;2022-12-18T14:03:00;-3.30;99.90
33067;DHT22;19428;49.024;8.366;2022-12-18T14:05:27;-3.30;99.90
33067;DHT22;19428;49.024;8.366;2022-12-18T14:07:54;-3.20;99.90
33067;DHT22;19428;49.024;8.366;2022-12-18T14:10:21;-3.30;99.90
33067;DHT22;19428;49.024;8.366;2022-12-18T14:12:48;-3.20;99.90
33067;DHT22;19428;49.024;8.366;2022-12-18T14:18:14;-3.30;99.90
33067;DHT22;19428;49.024;8.366;2022-12-18T14:20:47;-3.30;99.90
33067;DHT22;19428;49.024;8.366;2022-12-18T14:23:36;-3.40;99.90
33067;DHT22;19428;49.024;8.366;2022-12-18T14:26:20;-3.40;99.90
33067;DHT22;19428;49.024;8.366;2022-12-18T14:28:47;-3.30;99.90
33067;DHT22;19428;49.024;8.366;2022-12-18T14:31:31;-3.30;99.90
33067;DHT22;19428;49.024;8.366;2022-12-18T14:33:57;-3.40;99.90
33067;DHT22;19428;49.024;8.366;2022-12-18T14:36:25;-3.50;99.90
33067;DHT22;19428;49.024;8.366;2022-12-18T14:38:56;-3.40;99.90
33067;DHT22;19428;49.024;8.366;2022-12-18T14:41:23;-3.50;99.90
33067;DHT22;19428;49.024;8.366;2022-12-18T14:43:51;-3.40;99.90
33067;DHT22;19428;49.024;8.366;2022-12-18T14:48:59;-3.50;99.90
33067;DHT22;19428;49.024;8.366;2022-12-18T14:51:31;-3.50;99.90
33067;DHT22;19428;49.024;8.366;2022-12-18T14:54:00;-3.50;99.90
33067;DHT22;19428;49.024;8.366;2022-12-18T14:56:37;-3.50;99.90
33067;DHT22;19428;49.024;8.366;2022-12-18T14:59:22;-3.50;99.90
33067;DHT22;19428;49.024;8.366;2022-12-18T15:02:01;-3.60;99.90
33067;DHT22;19428;49.024;8.366;2022-12-18T15:04:31;-3.60;99.90
33067;DHT22;19428;49.024;8.366;2022-12-18T15:09:34;-3.60;99.90
33067;DHT22;19428;49.024;8.366;2022-12-18T15:12:01;-3.60;99.90
33067;DHT22;19428;49.024;8.366;2022-12-18T15:14:31;-3.70;99.90
33067;DHT22;19428;49.024;8.366;2022-12-18T15:16:59;-3.70;99.90
33067;DHT22;19428;49.024;8.366;2022-12-18T15:19:34;-3.70;99.90
33067;DHT22;19428;49.024;8.366;2022-12-18T15:22:01;-3.80;99.90
33067;DHT22;19428;49.024;8.366;2022-12-18T15:24:31;-3.80;99.90
33067;DHT22;19428;49.024;8.366;2022-12-18T15:26:58;-3.80;99.90
33067;DHT22;19428;49.024;8.366;2022-12-18T15:29:23;-3.90;99.90
33067;DHT22;19428;49.024;8.366;2022-12-18T15:32:02;-3.90;99.90
33067;DHT22;19428;49.024;8.366;2022-12-18T15:34:29;-3.90;99.90
33067;DHT22;19428;49.024;8.366;2022-12-18T15:36:55;-3.90;99.90
33067;DHT22;19428;49.024;8.366;2022-12-18T15:39:20;-3.80;99.90
33067;DHT22;19428;49.024;8.366;2022-12-18T15:41:46;-3.90;99.90
33067;DHT22;19428;49.024;8.366;2022-12-18T15:44:30;-4.00;99.90
33067;DHT22;19428;49.024;8.366;2022-12-18T15:46:57;-3.90;99.90
33067;DHT22;19428;49.024;8.366;2022-12-18T15:49:22;-3.90;99.90
33067;DHT22;19428;49.024;8.366;2022-12-18T15:52:14;-3.80;99.90
33067;DHT22;19428;49.024;8.366;2022-12-18T15:54:51;-3.90;99.90
33067;DHT22;19428;49.024;8.366;2022-12-18T15:57:37;-3.70;99.90
33067;DHT22;19428;49.024;8.366;2022-12-18T16:00:06;-3.60;99.90
33067;DHT22;19428;49.024;8.366;2022-12-18T16:02:33;-3.60;99.90
33067;DHT22;19428;49.024;8.366;2022-12-18T16:04:59;-3.60;99.90
33067;DHT22;19428;49.024;8.366;2022-12-18T16:07:24;-3.50;99.90
33067;DHT22;19428;49.024;8.366;2022-12-18T16:09:50;-3.40;99.90
33067;DHT22;19428;49.024;8.366;2022-12-18T16:12:23;-3.50;99.90
33067;DHT22;19428;49.024;8.366;2022-12-18T16:14:49;-3.50;99.90
33067;DHT22;19428;49.024;8.366;2022-12-18T16:17:15;-3.40;99.90
33067;DHT22;19428;49.024;8.366;2022-12-18T16:19:41;-3.40;99.90
33067;DHT22;19428;49.024;8.366;2022-12-18T16:22:18;-3.40;99.90
33067;DHT22;19428;49.024;8.366;2022-12-18T16:24:45;-3.60;99.90
33067;DHT22;19428;49.024;8.366;2022-12-18T16:27:10;-3.60;99.90
33067;DHT22;19428;49.024;8.366;2022-12-18T16:29:36;-3.60;99.90
33067;DHT22;19428;49.024;8.366;2022-12-18T16:32:02;-3.60;99.90
33067;DHT22;19428;49.024;8.366;2022-12-18T16:34:30;-3.70;99.90
33067;DHT22;19428;49.024;8.366;2022-12-18T16:36:57;-3.80;99.90
33067;DHT22;19428;49.024;8.366;2022-12-18T16:39:23;-3.70;99.90
33067;DHT22;19428;49.024;8.366;2022-12-18T16:41:49;-3.80;99.90
33067;DHT22;19428;49.024;8.366;2022-12-18T16:44:15;-3.70;99.90
33067;DHT22;19428;49.024;8.366;2022-12-18T16:46:41;-3.70;99.90
33067;DHT22;19428;49.024;8.366;2022-12-18T16:49:14;-3.70;99.90
33067;DHT22;19428;49.024;8.366;2022-12-18T16:51:40;-3.70;99.90
33067;DHT22;19428;49.024;8.366;2022-12-18T16:54:06;-3.80;99.90
33067;DHT22;19428;49.024;8.366;2022-12-18T16:56:32;-3.90;99.90
33067;DHT22;19428;49.024;8.366;2022-12-18T16:58:59;-3.90;99.90
33067;DHT22;19428;49.024;8.366;2022-12-18T17:01:27;-3.90;99.90
33067;DHT22;19428;49.024;8.366;2022-12-18T17:03:59;-3.90;99.90
33067;DHT22;19428;49.024;8.366;2022-12-18T17:06:26;-3.80;99.90
33067;DHT22;19428;49.024;8.366;2022-12-18T17:09:02;-3.70;99.90
33067;DHT22;19428;49.024;8.366;2022-12-18T17:11:29;-3.70;99.90
33067;DHT22;19428;49.024;8.366;2022-12-18T17:13:56;-3.70;99.90
33067;DHT22;19428;49.024;8.366;2022-12-18T17:16:23;-3.70;99.90
33067;DHT22;19428;49.024;8.366;2022-12-18T17:18:50;-3.80;99.90
33067;DHT22;19428;49.024;8.366;2022-12-18T17:21:16;-3.80;99.90
33067;DHT22;19428;49.024;8.366;2022-12-18T17:23:43;-3.80;99.90
33067;DHT22;19428;49.024;8.366;2022-12-18T17:26:10;-3.80;99.90
33067;DHT22;19428;49.024;8.366;2022-12-18T17:28:36;-3.80;99.90
33067;DHT22;19428;49.024;8.366;2022-12-18T17:31:13;-3.80;99.90
33067;DHT22;19428;49.024;8.366;2022-12-18T17:33:39;-3.80;99.90
33067;DHT22;19428;49.024;8.366;2022-12-18T17:36:05;-3.80;99.90
33067;DHT22;19428;49.024;8.366;2022-12-18T17:38:31;-3.80;99.90
33067;DHT22;19428;49.024;8.366;2022-12-18T17:41:05;-3.80;99.90
33067;DHT22;19428;49.024;8.366;2022-12-18T17:43:31;-3.80;99.90
33067;DHT22;19428;49.024;8.366;2022-12-18T17:46:04;-3.70;99.90
33067;DHT22;19428;49.024;8.366;2022-12-18T17:48:31;-3.80;99.90
33067;DHT22;19428;49.024;8.366;2022-12-18T17:51:01;-3.80;99.90
33067;DHT22;19428;49.024;8.366;2022-12-18T17:53:27;-3.70;99.90
33067;DHT22;19428;49.024;8.366;2022-12-18T17:55:57;-3.70;99.90
33067;DHT22;19428;49.024;8.366;2022-12-18T17:58:25;-3.70;99.90
33067;DHT22;19428;49.024;8.366;2022-12-18T18:00:50;-3.70;99.90
33067;DHT22;19428;49.024;8.366;2022-12-18T18:03:16;-3.70;99.90
33067;DHT22;19428;49.024;8.366;2022-12-18T18:05:43;-3.80;99.90
33067;DHT22;19428;49.024;8.366;2022-12-18T18:08:08;-3.80;99.90
33067;DHT22;19428;49.024;8.366;2022-12-18T18:10:35;-3.80;99.90
33067;DHT22;19428;49.024;8.366;2022-12-18T18:13:04;-3.80;99.90
33067;DHT22;19428;49.024;8.366;2022-12-18T18:15:55;-3.80;99.90
33067;DHT22;19428;49.024;8.366;2022-12-18T18:18:21;-3.80;99.90
33067;DHT22;19428;49.024;8.366;2022-12-18T18:20:47;-3.80;99.90
33067;DHT22;19428;49.024;8.366;2022-12-18T18:23:13;-3.80;99.90
33067;DHT22;19428;49.024;8.366;2022-12-18T18:25:38;-3.80;99.90
33067;DHT22;19428;49.024;8.366;2022-12-18T18:28:04;-3.90;99.90
33067;DHT22;19428;49.024;8.366;2022-12-18T18:30:29;-3.80;99.90
33067;DHT22;19428;49.024;8.366;2022-12-18T18:32:55;-3.80;99.90
33067;DHT22;19428;49.024;8.366;2022-12-18T18:35:21;-3.80;99.90
33067;DHT22;19428;49.024;8.366;2022-12-18T18:37:47;-3.70;99.90
33067;DHT22;19428;49.024;8.366;2022-12-18T18:40:13;-3.70;99.90
33067;DHT22;19428;49.024;8.366;2022-12-18T18:42:38;-3.70;99.90
33067;DHT22;19428;49.024;8.366;2022-12-18T18:45:04;-3.70;99.90
33067;DHT22;19428;49.024;8.366;2022-12-18T18:47:30;-3.70;99.90
33067;DHT22;19428;49.024;8.366;2022-12-18T18:49:55;-3.60;99.90
33067;DHT22;19428;49.024;8.366;2022-12-18T18:52:21;-3.60;99.90
33067;DHT22;19428;49.024;8.366;2022-12-18T18:54:47;-3.40;99.90
33067;DHT22;19428;49.024;8.366;2022-12-18T18:57:14;-3.50;99.90
33067;DHT22;19428;49.024;8.366;2022-12-18T18:59:40;-3.40;99.90
33067;DHT22;19428;49.024;8.366;2022-12-18T19:02:08;-3.40;99.90
33067;DHT22;19428;49.024;8.366;2022-12-18T19:04:34;-3.30;99.90
33067;DHT22;19428;49.024;8.366;2022-12-18T19:07:00;-3.30;99.90
33067;DHT22;19428;49.024;8.366;2022-12-18T19:09:26;-3.30;99.90
33067;DHT22;19428;49.024;8.366;2022-12-18T19:11:52;-3.30;99.90
33067;DHT22;19428;49.024;8.366;2022-12-18T19:14:36;-3.30;99.90
33067;DHT22;19428;49.024;8.366;2022-12-18T19:17:02;-3.40;99.90
33067;DHT22;19428;49.024;8.366;2022-12-18T19:19:27;-3.30;99.90
33067;DHT22;19428;49.024;8.366;2022-12-18T19:21:53;-3.30;99.90
33067;DHT22;19428;49.024;8.366;2022-12-18T19:24:19;-3.40;99.90
33067;DHT22;19428;49.024;8.366;2022-12-18T19:26:44;-3.40;99.90
33067;DHT22;19428;49.024;8.366;2022-12-18T19:29:12;-3.30;99.90
33067;DHT22;19428;49.024;8.366;2022-12-18T19:31:40;-3.40;99.90
33067;DHT22;19428;49.024;8.366;2022-12-18T19:34:06;-3.40;99.90
33067;DHT22;19428;49.024;8.366;2022-12-18T19:36:34;-3.30;99.90
33067;DHT22;19428;49.024;8.366;2022-12-18T19:39:01;-3.30;99.90
33067;DHT22;19428;49.024;8.366;2022-12-18T19:41:31;-3.30;99.90
33067;DHT22;19428;49.024;8.366;2022-12-18T19:43:56;-3.30;99.90
33067;DHT22;19428;49.024;8.366;2022-12-18T19:46:23;-3.20;99.90
33067;DHT22;19428;49.024;8.366;2022-12-18T19:48:49;-3.20;99.90
33067;DHT22;19428;49.024;8.366;2022-12-18T19:51:26;-3.20;99.90
33067;DHT22;19428;49.024;8.366;2022-12-18T19:53:52;-3.20;99.90
33067;DHT22;19428;49.024;8.366;2022-12-18T19:56:20;-3.20;99.90
33067;DHT22;19428;49.024;8.366;2022-12-18T19:58:46;-3.30;99.90
33067;DHT22;19428;49.024;8.366;2022-12-18T20:01:13;-3.30;99.90
33067;DHT22;19428;49.024;8.366;2022-12-18T20:03:43;-3.20;99.90
33067;DHT22;19428;49.024;8.366;2022-12-18T20:06:13;-3.10;99.90
33067;DHT22;19428;49.024;8.366;2022-12-18T20:08:39;-3.20;99.90